Terminal Aerodrome Forecast
Issued by NWS

Home | Current Version | Previous Version | Text Only | Print | Product List | Glossary On
Versions: 1 2 3 4 5 6 7 8 9 10 11 12 13
000
FTUS46 KSEW 252300 RRA
TAFBFI
TAF
KBFI 252342Z 2600/2624 VRB03KT P6SM SCT150 BKN200
     FM260900 14003KT 4SM BR SCT004
     FM261100 15004KT 3/4SM BR OVC002
     FM261600 15004KT 3SM BR BKN005
     FM261800 16004KT P6SM SCT014
     FM262000 16005KT P6SM SKC=

USA.gov is the U.S. government's official web portal to all federal, state and local government web resources and services.